sensor_id;sensor_type;location;lat;lon;timestamp;temperature;humidity
76120;DHT22;64852;48.092;-1.640;2023-03-13T00:01:33;14.10;99.90
76120;DHT22;64852;48.092;-1.640;2023-03-13T00:03:59;14.20;99.90
76120;DHT22;64852;48.092;-1.640;2023-03-13T00:06:25;14.20;99.90
76120;DHT22;64852;48.092;-1.640;2023-03-13T00:08:51;14.20;99.90
76120;DHT22;64852;48.092;-1.640;2023-03-13T00:11:16;14.30;99.90
76120;DHT22;64852;48.092;-1.640;2023-03-13T00:13:42;14.30;99.90
76120;DHT22;64852;48.092;-1.640;2023-03-13T00:16:12;14.20;99.90
76120;DHT22;64852;48.092;-1.640;2023-03-13T00:18:37;14.20;99.90
76120;DHT22;64852;48.092;-1.640;2023-03-13T00:21:07;14.20;99.90
76120;DHT22;64852;48.092;-1.640;2023-03-13T00:23:33;14.30;99.90
76120;DHT22;64852;48.092;-1.640;2023-03-13T00:26:00;14.30;99.90
76120;DHT22;64852;48.092;-1.640;2023-03-13T00:28:26;14.30;99.90
76120;DHT22;64852;48.092;-1.640;2023-03-13T00:30:59;14.20;99.90
76120;DHT22;64852;48.092;-1.640;2023-03-13T00:33:24;14.20;99.90
76120;DHT22;64852;48.092;-1.640;2023-03-13T00:35:50;14.30;99.90
76120;DHT22;64852;48.092;-1.640;2023-03-13T00:38:15;14.30;99.90
76120;DHT22;64852;48.092;-1.640;2023-03-13T00:40:41;14.30;99.90
76120;DHT22;64852;48.092;-1.640;2023-03-13T00:43:06;14.30;99.90
76120;DHT22;64852;48.092;-1.640;2023-03-13T00:45:32;14.30;99.90
76120;DHT22;64852;48.092;-1.640;2023-03-13T00:47:57;14.40;99.90
76120;DHT22;64852;48.092;-1.640;2023-03-13T00:50:23;14.40;99.90
76120;DHT22;64852;48.092;-1.640;2023-03-13T00:52:48;14.40;99.90
76120;DHT22;64852;48.092;-1.640;2023-03-13T00:55:14;14.20;99.90
76120;DHT22;64852;48.092;-1.640;2023-03-13T00:57:39;14.40;99.90
76120;DHT22;64852;48.092;-1.640;2023-03-13T01:00:05;14.40;99.90
76120;DHT22;64852;48.092;-1.640;2023-03-13T01:02:31;14.40;99.90
76120;DHT22;64852;48.092;-1.640;2023-03-13T01:04:56;14.40;99.90
76120;DHT22;64852;48.092;-1.640;2023-03-13T01:07:22;14.60;99.90
76120;DHT22;64852;48.092;-1.640;2023-03-13T01:09:47;14.30;99.90
76120;DHT22;64852;48.092;-1.640;2023-03-13T01:12:13;14.40;99.90
76120;DHT22;64852;48.092;-1.640;2023-03-13T01:14:38;14.40;99.90
76120;DHT22;64852;48.092;-1.640;2023-03-13T01:17:04;14.40;99.90
76120;DHT22;64852;48.092;-1.640;2023-03-13T01:19:29;14.30;99.90
76120;DHT22;64852;48.092;-1.640;2023-03-13T01:21:55;14.40;99.90
76120;DHT22;64852;48.092;-1.640;2023-03-13T01:24:20;14.40;99.90
76120;DHT22;64852;48.092;-1.640;2023-03-13T01:26:46;14.40;99.90
76120;DHT22;64852;48.092;-1.640;2023-03-13T01:29:12;14.40;99.90
76120;DHT22;64852;48.092;-1.640;2023-03-13T01:31:37;14.40;99.90
76120;DHT22;64852;48.092;-1.640;2023-03-13T01:34:03;14.20;99.90
76120;DHT22;64852;48.092;-1.640;2023-03-13T01:36:29;14.40;99.90
76120;DHT22;64852;48.092;-1.640;2023-03-13T01:38:56;14.40;99.90
76120;DHT22;64852;48.092;-1.640;2023-03-13T01:41:22;14.60;99.90
76120;DHT22;64852;48.092;-1.640;2023-03-13T01:43:48;14.50;99.90
76120;DHT22;64852;48.092;-1.640;2023-03-13T01:46:15;14.50;99.90
76120;DHT22;64852;48.092;-1.640;2023-03-13T01:48:46;14.60;99.90
76120;DHT22;64852;48.092;-1.640;2023-03-13T01:51:18;14.60;99.90
76120;DHT22;64852;48.092;-1.640;2023-03-13T01:53:46;14.60;99.90
76120;DHT22;64852;48.092;-1.640;2023-03-13T01:56:16;14.60;99.90
76120;DHT22;64852;48.092;-1.640;2023-03-13T01:58:41;14.60;99.90
76120;DHT22;64852;48.092;-1.640;2023-03-13T02:01:07;14.60;99.90
76120;DHT22;64852;48.092;-1.640;2023-03-13T02:03:33;14.60;99.90
76120;DHT22;64852;48.092;-1.640;2023-03-13T02:05:59;14.60;99.90
76120;DHT22;64852;48.092;-1.640;2023-03-13T02:08:32;14.50;99.90
76120;DHT22;64852;48.092;-1.640;2023-03-13T02:11:18;14.60;99.90
76120;DHT22;64852;48.092;-1.640;2023-03-13T02:13:45;14.50;99.90
76120;DHT22;64852;48.092;-1.640;2023-03-13T02:16:11;14.60;99.90
76120;DHT22;64852;48.092;-1.640;2023-03-13T02:18:36;14.70;99.90
76120;DHT22;64852;48.092;-1.640;2023-03-13T02:24:08;14.50;99.90
76120;DHT22;64852;48.092;-1.640;2023-03-13T02:26:37;14.60;99.90
76120;DHT22;64852;48.092;-1.640;2023-03-13T02:29:03;14.60;99.90
76120;DHT22;64852;48.092;-1.640;2023-03-13T02:31:29;14.40;99.90
76120;DHT22;64852;48.092;-1.640;2023-03-13T02:33:55;14.50;99.90
76120;DHT22;64852;48.092;-1.640;2023-03-13T02:36:23;14.40;99.90
76120;DHT22;64852;48.092;-1.640;2023-03-13T02:38:55;14.40;99.90
76120;DHT22;64852;48.092;-1.640;2023-03-13T02:41:22;14.10;99.90
76120;DHT22;64852;48.092;-1.640;2023-03-13T02:43:48;14.00;99.90
76120;DHT22;64852;48.092;-1.640;2023-03-13T02:46:17;13.80;99.90
76120;DHT22;64852;48.092;-1.640;2023-03-13T02:48:47;13.60;99.90
76120;DHT22;64852;48.092;-1.640;2023-03-13T02:51:15;13.50;99.90
76120;DHT22;64852;48.092;-1.640;2023-03-13T02:53:42;13.40;99.90
76120;DHT22;64852;48.092;-1.640;2023-03-13T02:56:07;13.40;99.90
76120;DHT22;64852;48.092;-1.640;2023-03-13T02:58:40;13.30;99.90
76120;DHT22;64852;48.092;-1.640;2023-03-13T03:01:06;13.20;99.90
76120;DHT22;64852;48.092;-1.640;2023-03-13T03:03:32;13.10;99.90
76120;DHT22;64852;48.092;-1.640;2023-03-13T03:05:57;13.30;99.90
76120;DHT22;64852;48.092;-1.640;2023-03-13T03:08:23;13.10;99.90
76120;DHT22;64852;48.092;-1.640;2023-03-13T03:10:48;13.10;99.90
76120;DHT22;64852;48.092;-1.640;2023-03-13T03:13:14;13.10;99.90
76120;DHT22;64852;48.092;-1.640;2023-03-13T03:15:39;13.20;99.90
76120;DHT22;64852;48.092;-1.640;2023-03-13T03:18:05;13.10;99.90
76120;DHT22;64852;48.092;-1.640;2023-03-13T03:20:30;13.20;99.90
76120;DHT22;64852;48.092;-1.640;2023-03-13T03:22:56;13.10;99.90
76120;DHT22;64852;48.092;-1.640;2023-03-13T03:25:21;12.90;99.90
76120;DHT22;64852;48.092;-1.640;2023-03-13T03:27:47;13.20;99.90
76120;DHT22;64852;48.092;-1.640;2023-03-13T03:30:13;13.30;99.90
76120;DHT22;64852;48.092;-1.640;2023-03-13T03:32:38;13.30;99.90
76120;DHT22;64852;48.092;-1.640;2023-03-13T03:35:04;13.10;99.90
76120;DHT22;64852;48.092;-1.640;2023-03-13T03:37:29;13.10;99.90
76120;DHT22;64852;48.092;-1.640;2023-03-13T03:39:55;13.10;99.90
76120;DHT22;64852;48.092;-1.640;2023-03-13T03:42:20;13.20;99.90
76120;DHT22;64852;48.092;-1.640;2023-03-13T03:44:46;13.20;99.90
76120;DHT22;64852;48.092;-1.640;2023-03-13T03:47:11;13.20;99.90
76120;DHT22;64852;48.092;-1.640;2023-03-13T03:49:37;13.20;99.90
76120;DHT22;64852;48.092;-1.640;2023-03-13T03:52:02;13.30;99.90
76120;DHT22;64852;48.092;-1.640;2023-03-13T03:54:28;13.50;99.90
76120;DHT22;64852;48.092;-1.640;2023-03-13T03:56:53;13.20;99.90
76120;DHT22;64852;48.092;-1.640;2023-03-13T03:59:19;13.10;99.90
76120;DHT22;64852;48.092;-1.640;2023-03-13T04:01:44;13.20;99.90
76120;DHT22;64852;48.092;-1.640;2023-03-13T04:04:10;13.20;99.90
76120;DHT22;64852;48.092;-1.640;2023-03-13T04:06:35;13.10;99.90
76120;DHT22;64852;48.092;-1.640;2023-03-13T04:09:01;13.20;99.90
76120;DHT22;64852;48.092;-1.640;2023-03-13T04:11:26;13.10;99.90
76120;DHT22;64852;48.092;-1.640;2023-03-13T04:13:52;13.20;99.90
76120;DHT22;64852;48.092;-1.640;2023-03-13T04:16:17;13.10;99.90
76120;DHT22;64852;48.092;-1.640;2023-03-13T04:18:43;13.20;99.90
76120;DHT22;64852;48.092;-1.640;2023-03-13T04:21:08;13.30;99.90
76120;DHT22;64852;48.092;-1.640;2023-03-13T04:23:34;13.10;99.90
76120;DHT22;64852;48.092;-1.640;2023-03-13T04:25:59;13.10;99.90
76120;DHT22;64852;48.092;-1.640;2023-03-13T04:28:25;13.20;99.90
76120;DHT22;64852;48.092;-1.640;2023-03-13T04:30:50;13.20;99.90
76120;DHT22;64852;48.092;-1.640;2023-03-13T04:33:17;13.30;99.90
76120;DHT22;64852;48.092;-1.640;2023-03-13T04:35:42;13.20;99.90
76120;DHT22;64852;48.092;-1.640;2023-03-13T04:38:08;13.20;99.90
76120;DHT22;64852;48.092;-1.640;2023-03-13T04:40:33;13.20;99.90
76120;DHT22;64852;48.092;-1.640;2023-03-13T04:42:59;13.20;99.90
76120;DHT22;64852;48.092;-1.640;2023-03-13T04:45:24;13.40;99.90
76120;DHT22;64852;48.092;-1.640;2023-03-13T04:47:50;13.40;99.90
76120;DHT22;64852;48.092;-1.640;2023-03-13T04:50:15;13.40;99.90
76120;DHT22;64852;48.092;-1.640;2023-03-13T04:52:41;13.40;99.90
76120;DHT22;64852;48.092;-1.640;2023-03-13T04:55:07;13.40;99.90
76120;DHT22;64852;48.092;-1.640;2023-03-13T04:57:32;13.40;99.90
76120;DHT22;64852;48.092;-1.640;2023-03-13T04:59:58;13.10;99.90
76120;DHT22;64852;48.092;-1.640;2023-03-13T05:02:23;13.30;99.90
76120;DHT22;64852;48.092;-1.640;2023-03-13T05:04:49;13.30;99.90
76120;DHT22;64852;48.092;-1.640;2023-03-13T05:07:14;13.30;99.90
76120;DHT22;64852;48.092;-1.640;2023-03-13T05:09:40;13.40;99.90
76120;DHT22;64852;48.092;-1.640;2023-03-13T05:12:05;13.40;99.90
76120;DHT22;64852;48.092;-1.640;2023-03-13T05:14:31;13.30;99.90
76120;DHT22;64852;48.092;-1.640;2023-03-13T05:16:56;13.30;99.90
76120;DHT22;64852;48.092;-1.640;2023-03-13T05:19:22;13.30;99.90
76120;DHT22;64852;48.092;-1.640;2023-03-13T05:21:47;13.30;99.90
76120;DHT22;64852;48.092;-1.640;2023-03-13T05:24:13;13.20;99.90
76120;DHT22;64852;48.092;-1.640;2023-03-13T05:26:38;13.20;99.90
76120;DHT22;64852;48.092;-1.640;2023-03-13T05:29:04;13.10;99.90
76120;DHT22;64852;48.092;-1.640;2023-03-13T05:31:29;13.20;99.90
76120;DHT22;64852;48.092;-1.640;2023-03-13T05:33:55;13.00;99.90
76120;DHT22;64852;48.092;-1.640;2023-03-13T05:36:20;13.20;99.90
76120;DHT22;64852;48.092;-1.640;2023-03-13T05:38:45;13.20;99.90
76120;DHT22;64852;48.092;-1.640;2023-03-13T05:41:11;13.10;99.90
76120;DHT22;64852;48.092;-1.640;2023-03-13T05:43:36;13.20;99.90
76120;DHT22;64852;48.092;-1.640;2023-03-13T05:46:02;13.20;99.90
76120;DHT22;64852;48.092;-1.640;2023-03-13T05:48:27;13.30;99.90
76120;DHT22;64852;48.092;-1.640;2023-03-13T05:50:53;13.20;99.90
76120;DHT22;64852;48.092;-1.640;2023-03-13T05:53:18;14.60;99.90
76120;DHT22;64852;48.092;-1.640;2023-03-13T05:55:44;13.20;99.90
76120;DHT22;64852;48.092;-1.640;2023-03-13T05:58:09;13.20;99.90
76120;DHT22;64852;48.092;-1.640;2023-03-13T06:00:35;13.30;99.90
76120;DHT22;64852;48.092;-1.640;2023-03-13T06:03:00;13.30;99.90
76120;DHT22;64852;48.092;-1.640;2023-03-13T06:05:26;13.30;99.90
76120;DHT22;64852;48.092;-1.640;2023-03-13T06:07:51;12.90;99.90
76120;DHT22;64852;48.092;-1.640;2023-03-13T06:10:17;13.20;99.90
76120;DHT22;64852;48.092;-1.640;2023-03-13T06:12:42;13.20;99.90
76120;DHT22;64852;48.092;-1.640;2023-03-13T06:15:08;13.00;99.90
76120;DHT22;64852;48.092;-1.640;2023-03-13T06:17:34;13.10;99.90
76120;DHT22;64852;48.092;-1.640;2023-03-13T06:20:00;13.10;99.90
76120;DHT22;64852;48.092;-1.640;2023-03-13T06:22:26;13.10;99.90
76120;DHT22;64852;48.092;-1.640;2023-03-13T06:24:51;13.10;99.90
76120;DHT22;64852;48.092;-1.640;2023-03-13T06:27:17;13.10;99.90
76120;DHT22;64852;48.092;-1.640;2023-03-13T06:29:42;13.10;99.90
76120;DHT22;64852;48.092;-1.640;2023-03-13T06:32:08;13.10;99.90
76120;DHT22;64852;48.092;-1.640;2023-03-13T06:34:33;13.00;99.90
76120;DHT22;64852;48.092;-1.640;2023-03-13T06:36:59;13.00;99.90
76120;DHT22;64852;48.092;-1.640;2023-03-13T06:39:24;13.00;99.90
76120;DHT22;64852;48.092;-1.640;2023-03-13T06:41:50;12.80;99.90
76120;DHT22;64852;48.092;-1.640;2023-03-13T06:44:15;13.00;99.90
76120;DHT22;64852;48.092;-1.640;2023-03-13T06:46:41;13.10;99.90
76120;DHT22;64852;48.092;-1.640;2023-03-13T06:49:06;13.10;99.90
76120;DHT22;64852;48.092;-1.640;2023-03-13T06:51:32;13.10;99.90
76120;DHT22;64852;48.092;-1.640;2023-03-13T06:53:58;13.00;99.90
76120;DHT22;64852;48.092;-1.640;2023-03-13T06:56:23;13.00;99.90
76120;DHT22;64852;48.092;-1.640;2023-03-13T06:58:49;13.10;99.90
76120;DHT22;64852;48.092;-1.640;2023-03-13T07:01:15;13.10;99.90
76120;DHT22;64852;48.092;-1.640;2023-03-13T07:03:41;13.00;99.90
76120;DHT22;64852;48.092;-1.640;2023-03-13T07:06:07;13.10;99.90
76120;DHT22;64852;48.092;-1.640;2023-03-13T07:08:33;13.10;99.90
76120;DHT22;64852;48.092;-1.640;2023-03-13T07:11:02;13.00;99.90
76120;DHT22;64852;48.092;-1.640;2023-03-13T07:13:28;13.00;99.90
76120;DHT22;64852;48.092;-1.640;2023-03-13T07:15:54;13.00;99.90
76120;DHT22;64852;48.092;-1.640;2023-03-13T07:18:20;13.10;99.90
76120;DHT22;64852;48.092;-1.640;2023-03-13T07:20:53;12.90;99.90
76120;DHT22;64852;48.092;-1.640;2023-03-13T07:23:19;13.00;99.90
76120;DHT22;64852;48.092;-1.640;2023-03-13T07:25:51;12.90;99.90
76120;DHT22;64852;48.092;-1.640;2023-03-13T07:28:16;12.90;99.90
76120;DHT22;64852;48.092;-1.640;2023-03-13T07:30:42;12.90;99.90
76120;DHT22;64852;48.092;-1.640;2023-03-13T07:33:07;12.80;99.90
76120;DHT22;64852;48.092;-1.640;2023-03-13T07:35:33;13.00;99.90
76120;DHT22;64852;48.092;-1.640;2023-03-13T07:37:58;12.90;99.90
76120;DHT22;64852;48.092;-1.640;2023-03-13T07:40:24;13.00;99.90
76120;DHT22;64852;48.092;-1.640;2023-03-13T07:42:49;13.00;99.90
76120;DHT22;64852;48.092;-1.640;2023-03-13T07:45:15;13.00;99.90
76120;DHT22;64852;48.092;-1.640;2023-03-13T07:47:40;13.00;99.90
76120;DHT22;64852;48.092;-1.640;2023-03-13T07:50:06;12.90;99.90
76120;DHT22;64852;48.092;-1.640;2023-03-13T07:52:31;13.00;99.90
76120;DHT22;64852;48.092;-1.640;2023-03-13T07:54:57;12.90;99.90
76120;DHT22;64852;48.092;-1.640;2023-03-13T07:57:22;13.00;99.90
76120;DHT22;64852;48.092;-1.640;2023-03-13T07:59:48;12.90;99.90
76120;DHT22;64852;48.092;-1.640;2023-03-13T08:02:13;12.90;99.90
76120;DHT22;64852;48.092;-1.640;2023-03-13T08:04:41;13.10;99.90
76120;DHT22;64852;48.092;-1.640;2023-03-13T08:07:07;13.10;99.90
76120;DHT22;64852;48.092;-1.640;2023-03-13T08:09:33;13.10;99.90
76120;DHT22;64852;48.092;-1.640;2023-03-13T08:11:58;13.20;99.90
76120;DHT22;64852;48.092;-1.640;2023-03-13T08:14:24;13.20;99.90
76120;DHT22;64852;48.092;-1.640;2023-03-13T08:16:49;13.10;99.90
76120;DHT22;64852;48.092;-1.640;2023-03-13T08:19:15;13.10;99.90
76120;DHT22;64852;48.092;-1.640;2023-03-13T08:21:40;13.30;99.90
76120;DHT22;64852;48.092;-1.640;2023-03-13T08:24:06;13.10;99.90
76120;DHT22;64852;48.092;-1.640;2023-03-13T08:26:33;13.30;99.90
76120;DHT22;64852;48.092;-1.640;2023-03-13T08:29:03;13.20;99.90
76120;DHT22;64852;48.092;-1.640;2023-03-13T08:31:30;13.30;99.90
76120;DHT22;64852;48.092;-1.640;2023-03-13T08:33:56;13.40;99.90
76120;DHT22;64852;48.092;-1.640;2023-03-13T08:36:27;13.50;99.90
76120;DHT22;64852;48.092;-1.640;2023-03-13T08:38:53;13.50;99.90
76120;DHT22;64852;48.092;-1.640;2023-03-13T08:41:19;13.60;99.90
76120;DHT22;64852;48.092;-1.640;2023-03-13T08:43:46;13.60;99.90
76120;DHT22;64852;48.092;-1.640;2023-03-13T08:46:13;13.70;99.90
76120;DHT22;64852;48.092;-1.640;2023-03-13T08:48:38;13.70;99.90
76120;DHT22;64852;48.092;-1.640;2023-03-13T08:51:08;13.80;99.90
76120;DHT22;64852;48.092;-1.640;2023-03-13T08:53:34;13.80;99.90
76120;DHT22;64852;48.092;-1.640;2023-03-13T08:56:00;13.70;99.90
76120;DHT22;64852;48.092;-1.640;2023-03-13T08:58:26;13.90;99.90
76120;DHT22;64852;48.092;-1.640;2023-03-13T09:00:52;14.00;99.90
76120;DHT22;64852;48.092;-1.640;2023-03-13T09:03:17;13.80;99.90
76120;DHT22;64852;48.092;-1.640;2023-03-13T09:05:43;13.90;99.90
76120;DHT22;64852;48.092;-1.640;2023-03-13T09:08:10;13.90;99.90
76120;DHT22;64852;48.092;-1.640;2023-03-13T09:10:35;13.90;99.90
76120;DHT22;64852;48.092;-1.640;2023-03-13T09:13:01;13.90;99.90
76120;DHT22;64852;48.092;-1.640;2023-03-13T09:15:27;13.90;99.90
76120;DHT22;64852;48.092;-1.640;2023-03-13T09:17:53;13.90;99.90
76120;DHT22;64852;48.092;-1.640;2023-03-13T09:20:18;13.90;99.90
76120;DHT22;64852;48.092;-1.640;2023-03-13T09:22:44;13.90;99.90
76120;DHT22;64852;48.092;-1.640;2023-03-13T09:25:10;14.00;99.90
76120;DHT22;64852;48.092;-1.640;2023-03-13T09:27:35;14.10;99.90
76120;DHT22;64852;48.092;-1.640;2023-03-13T09:30:01;14.00;99.90
76120;DHT22;64852;48.092;-1.640;2023-03-13T09:32:26;14.10;99.90
76120;DHT22;64852;48.092;-1.640;2023-03-13T09:34:52;14.10;99.90
76120;DHT22;64852;48.092;-1.640;2023-03-13T09:37:17;14.10;99.90
76120;DHT22;64852;48.092;-1.640;2023-03-13T09:39:43;14.30;99.90
76120;DHT22;64852;48.092;-1.640;2023-03-13T09:42:19;14.30;99.90
76120;DHT22;64852;48.092;-1.640;2023-03-13T09:44:52;14.30;99.90
76120;DHT22;64852;48.092;-1.640;2023-03-13T09:47:23;14.30;99.90
76120;DHT22;64852;48.092;-1.640;2023-03-13T09:49:52;14.40;99.90
76120;DHT22;64852;48.092;-1.640;2023-03-13T09:57:17;14.50;99.90
76120;DHT22;64852;48.092;-1.640;2023-03-13T09:59:48;14.60;99.90
76120;DHT22;64852;48.092;-1.640;2023-03-13T10:07:29;14.80;99.90
76120;DHT22;64852;48.092;-1.640;2023-03-13T10:09:54;14.80;99.90
76120;DHT22;64852;48.092;-1.640;2023-03-13T10:12:22;14.90;99.90
76120;DHT22;64852;48.092;-1.640;2023-03-13T10:17:17;15.00;99.90
76120;DHT22;64852;48.092;-1.640;2023-03-13T10:19:44;15.40;99.90
76120;DHT22;64852;48.092;-1.640;2023-03-13T10:22:19;15.00;99.90
76120;DHT22;64852;48.092;-1.640;2023-03-13T10:24:50;14.90;99.90
76120;DHT22;64852;48.092;-1.640;2023-03-13T10:27:16;15.00;99.90
76120;DHT22;64852;48.092;-1.640;2023-03-13T10:29:41;15.20;99.90
76120;DHT22;64852;48.092;-1.640;2023-03-13T10:32:07;15.10;99.90
76120;DHT22;64852;48.092;-1.640;2023-03-13T10:37:10;14.90;99.90
76120;DHT22;64852;48.092;-1.640;2023-03-13T10:39:36;14.90;99.90
76120;DHT22;64852;48.092;-1.640;2023-03-13T10:42:09;14.90;99.90
76120;DHT22;64852;48.092;-1.640;2023-03-13T10:44:35;14.90;99.90
76120;DHT22;64852;48.092;-1.640;2023-03-13T10:47:01;14.90;99.90
76120;DHT22;64852;48.092;-1.640;2023-03-13T10:49:26;15.00;99.90
76120;DHT22;64852;48.092;-1.640;2023-03-13T10:51:53;15.00;99.90
76120;DHT22;64852;48.092;-1.640;2023-03-13T10:54:26;15.00;99.90
76120;DHT22;64852;48.092;-1.640;2023-03-13T10:57:06;15.10;99.90
76120;DHT22;64852;48.092;-1.640;2023-03-13T10:59:32;15.10;99.90
76120;DHT22;64852;48.092;-1.640;2023-03-13T11:02:12;15.20;99.90
76120;DHT22;64852;48.092;-1.640;2023-03-13T11:04:42;15.20;99.90
76120;DHT22;64852;48.092;-1.640;2023-03-13T11:07:13;15.30;99.90
76120;DHT22;64852;48.092;-1.640;2023-03-13T11:09:40;15.40;99.90
76120;DHT22;64852;48.092;-1.640;2023-03-13T11:12:08;15.40;99.90
76120;DHT22;64852;48.092;-1.640;2023-03-13T11:14:36;15.60;99.90
76120;DHT22;64852;48.092;-1.640;2023-03-13T11:17:03;15.70;99.90
76120;DHT22;64852;48.092;-1.640;2023-03-13T11:19:37;15.70;99.90
76120;DHT22;64852;48.092;-1.640;2023-03-13T11:22:15;16.00;99.90
76120;DHT22;64852;48.092;-1.640;2023-03-13T11:25:01;16.10;99.90
76120;DHT22;64852;48.092;-1.640;2023-03-13T11:27:45;16.20;99.90
76120;DHT22;64852;48.092;-1.640;2023-03-13T11:32:59;16.10;99.90
76120;DHT22;64852;48.092;-1.640;2023-03-13T11:37:57;15.80;99.90
76120;DHT22;64852;48.092;-1.640;2023-03-13T11:40:31;15.70;99.90
76120;DHT22;64852;48.092;-1.640;2023-03-13T12:01:48;16.70;99.90
76120;DHT22;64852;48.092;-1.640;2023-03-13T12:04:20;16.90;99.90
76120;DHT22;64852;48.092;-1.640;2023-03-13T12:07:24;16.70;99.90
76120;DHT22;64852;48.092;-1.640;2023-03-13T12:09:46;16.80;99.90
76120;DHT22;64852;48.092;-1.640;2023-03-13T12:12:16;16.60;99.90
76120;DHT22;64852;48.092;-1.640;2023-03-13T12:14:44;16.60;99.90
76120;DHT22;64852;48.092;-1.640;2023-03-13T12:17:14;16.80;99.90
76120;DHT22;64852;48.092;-1.640;2023-03-13T12:19:44;16.70;99.90
76120;DHT22;64852;48.092;-1.640;2023-03-13T12:22:14;16.50;99.90
76120;DHT22;64852;48.092;-1.640;2023-03-13T12:25:24;16.40;99.90
76120;DHT22;64852;48.092;-1.640;2023-03-13T12:27:38;16.40;99.90
76120;DHT22;64852;48.092;-1.640;2023-03-13T12:30:30;16.40;99.90
76120;DHT22;64852;48.092;-1.640;2023-03-13T12:33:04;17.10;99.90
76120;DHT22;64852;48.092;-1.640;2023-03-13T12:35:39;17.70;99.90
76120;DHT22;64852;48.092;-1.640;2023-03-13T12:38:14;18.40;99.90
76120;DHT22;64852;48.092;-1.640;2023-03-13T12:43:35;18.10;99.90
76120;DHT22;64852;48.092;-1.640;2023-03-13T13:01:41;16.60;99.90
76120;DHT22;64852;48.092;-1.640;2023-03-13T13:04:14;16.80;99.90
76120;DHT22;64852;48.092;-1.640;2023-03-13T13:09:23;17.00;99.90
76120;DHT22;64852;48.092;-1.640;2023-03-13T13:11:50;17.30;99.90
76120;DHT22;64852;48.092;-1.640;2023-03-13T13:25:33;19.40;81.80
76120;DHT22;64852;48.092;-1.640;2023-03-13T13:29:56;18.40;83.50
76120;DHT22;64852;48.092;-1.640;2023-03-13T13:33:33;17.90;92.20
76120;DHT22;64852;48.092;-1.640;2023-03-13T13:35:19;17.40;98.60
76120;DHT22;64852;48.092;-1.640;2023-03-13T13:37:45;17.40;98.70
76120;DHT22;64852;48.092;-1.640;2023-03-13T13:42:49;18.20;91.30
76120;DHT22;64852;48.092;-1.640;2023-03-13T13:47:42;18.10;94.70
76120;DHT22;64852;48.092;-1.640;2023-03-13T13:50:24;18.00;99.90
76120;DHT22;64852;48.092;-1.640;2023-03-13T13:52:50;18.30;99.90
76120;DHT22;64852;48.092;-1.640;2023-03-13T13:58:01;17.40;96.30
76120;DHT22;64852;48.092;-1.640;2023-03-13T14:00:33;17.30;99.90
76120;DHT22;64852;48.092;-1.640;2023-03-13T14:03:01;17.50;99.90
76120;DHT22;64852;48.092;-1.640;2023-03-13T14:05:27;17.40;99.90
76120;DHT22;64852;48.092;-1.640;2023-03-13T14:13:30;18.50;99.90
76120;DHT22;64852;48.092;-1.640;2023-03-13T14:15:55;18.30;97.10
76120;DHT22;64852;48.092;-1.640;2023-03-13T14:18:27;18.10;99.90
76120;DHT22;64852;48.092;-1.640;2023-03-13T14:21:05;18.00;99.90
76120;DHT22;64852;48.092;-1.640;2023-03-13T14:23:45;17.60;99.90
76120;DHT22;64852;48.092;-1.640;2023-03-13T14:26:17;17.60;99.90
76120;DHT22;64852;48.092;-1.640;2023-03-13T14:28:50;17.50;99.90
76120;DHT22;64852;48.092;-1.640;2023-03-13T14:33:50;17.20;99.90
76120;DHT22;64852;48.092;-1.640;2023-03-13T14:36:16;17.30;99.90
76120;DHT22;64852;48.092;-1.640;2023-03-13T14:38:52;16.90;99.90
76120;DHT22;64852;48.092;-1.640;2023-03-13T14:41:40;16.80;99.90
76120;DHT22;64852;48.092;-1.640;2023-03-13T14:44:13;16.80;99.90
76120;DHT22;64852;48.092;-1.640;2023-03-13T14:46:41;16.60;99.90
76120;DHT22;64852;48.092;-1.640;2023-03-13T14:49:11;16.50;99.90
76120;DHT22;64852;48.092;-1.640;2023-03-13T14:51:39;16.60;99.90
76120;DHT22;64852;48.092;-1.640;2023-03-13T14:54:05;16.70;99.90
76120;DHT22;64852;48.092;-1.640;2023-03-13T14:56:35;16.60;99.90
76120;DHT22;64852;48.092;-1.640;2023-03-13T14:59:11;16.90;99.90
76120;DHT22;64852;48.092;-1.640;2023-03-13T15:01:38;17.00;99.90
76120;DHT22;64852;48.092;-1.640;2023-03-13T15:04:04;17.00;99.90
76120;DHT22;64852;48.092;-1.640;2023-03-13T15:06:29;17.00;99.90
76120;DHT22;64852;48.092;-1.640;2023-03-13T15:09:13;16.70;99.90
76120;DHT22;64852;48.092;-1.640;2023-03-13T15:11:50;16.60;99.90
76120;DHT22;64852;48.092;-1.640;2023-03-13T15:14:36;16.40;99.90
76120;DHT22;64852;48.092;-1.640;2023-03-13T15:17:02;16.30;99.90
76120;DHT22;64852;48.092;-1.640;2023-03-13T15:19:31;16.40;99.90
76120;DHT22;64852;48.092;-1.640;2023-03-13T15:21:56;16.40;99.90
76120;DHT22;64852;48.092;-1.640;2023-03-13T15:24:22;16.40;99.90
76120;DHT22;64852;48.092;-1.640;2023-03-13T15:26:47;16.30;99.90
76120;DHT22;64852;48.092;-1.640;2023-03-13T15:29:13;16.10;99.90
76120;DHT22;64852;48.092;-1.640;2023-03-13T15:31:39;16.00;99.90
76120;DHT22;64852;48.092;-1.640;2023-03-13T15:34:05;16.00;99.90
76120;DHT22;64852;48.092;-1.640;2023-03-13T15:36:30;15.60;99.90
76120;DHT22;64852;48.092;-1.640;2023-03-13T15:38:56;15.40;99.90
76120;DHT22;64852;48.092;-1.640;2023-03-13T15:41:22;15.30;99.90
76120;DHT22;64852;48.092;-1.640;2023-03-13T15:43:48;15.30;99.90
76120;DHT22;64852;48.092;-1.640;2023-03-13T15:46:21;15.20;99.90
76120;DHT22;64852;48.092;-1.640;2023-03-13T15:48:48;15.20;99.90
76120;DHT22;64852;48.092;-1.640;2023-03-13T15:51:15;15.10;99.90
76120;DHT22;64852;48.092;-1.640;2023-03-13T15:53:41;15.10;99.90
76120;DHT22;64852;48.092;-1.640;2023-03-13T15:56:12;15.00;99.90
76120;DHT22;64852;48.092;-1.640;2023-03-13T15:58:38;14.90;99.90
76120;DHT22;64852;48.092;-1.640;2023-03-13T16:01:03;15.10;99.90
76120;DHT22;64852;48.092;-1.640;2023-03-13T16:03:29;15.00;99.90
76120;DHT22;64852;48.092;-1.640;2023-03-13T16:05:55;15.30;99.90
76120;DHT22;64852;48.092;-1.640;2023-03-13T16:08:24;15.30;99.90
76120;DHT22;64852;48.092;-1.640;2023-03-13T16:10:50;15.40;99.90
76120;DHT22;64852;48.092;-1.640;2023-03-13T16:13:16;15.50;99.90
76120;DHT22;64852;48.092;-1.640;2023-03-13T16:15:42;15.70;99.90
76120;DHT22;64852;48.092;-1.640;2023-03-13T16:18:20;15.70;99.90
76120;DHT22;64852;48.092;-1.640;2023-03-13T16:20:46;15.60;99.90
76120;DHT22;64852;48.092;-1.640;2023-03-13T16:23:12;15.50;99.90
76120;DHT22;64852;48.092;-1.640;2023-03-13T16:25:37;15.30;99.90
76120;DHT22;64852;48.092;-1.640;2023-03-13T16:28:04;15.50;99.90
76120;DHT22;64852;48.092;-1.640;2023-03-13T16:30:31;17.40;99.90
76120;DHT22;64852;48.092;-1.640;2023-03-13T16:32:57;15.40;99.90
76120;DHT22;64852;48.092;-1.640;2023-03-13T16:35:24;15.20;99.90
76120;DHT22;64852;48.092;-1.640;2023-03-13T16:37:51;15.20;99.90
76120;DHT22;64852;48.092;-1.640;2023-03-13T16:40:21;15.10;99.90
76120;DHT22;64852;48.092;-1.640;2023-03-13T16:42:47;15.00;99.90
76120;DHT22;64852;48.092;-1.640;2023-03-13T16:45:12;14.90;99.90
76120;DHT22;64852;48.092;-1.640;2023-03-13T16:47:39;14.90;99.90
76120;DHT22;64852;48.092;-1.640;2023-03-13T16:50:16;14.90;99.90